Airfield :
LOGIN :

Register | Disclaimer

   EN    FR    IT 

 










Legend :    VFR   Marginal VFR   IFR   Intensive IFR   Very Intensive IFR
Visi :
Ceiling :
>= 8 km
>= 3000ft
5 to 8 km
1000 to 3000 ft
1500m to 5 km
500 to 1000 ft
800 to 1500m
200 to 500 ft
< 800m
< 200 ft
Symbols :   Thunderstorms  Fog  Heavy snow  Heavy precipitations  Wind > 20 kt
SIGMETs :     Misc.  Thunderstorms  Icing  Turbulence  Mountain Waves  Volcanic Ashes






- Airport Elevation : 286 ft
- IATA code : FFD


EGVA - RAF Fairford

CURRENT METAR :
  • 162356Z AUTO 22022G29KT 9999 CLR 04/01 A2961 RMK AO2 SLP033 60004 T00430013 10072 20035 401300035 52026 $

EXPIRED METARs :
  • 162256Z AUTO 23015KT 9999 CLR 04/02 A2959 RMK AO2 RAE2156 SLP026 P0000 T00380015 $
  • 162157Z AUTO 24019G26KT 9999 FEW017 04/02 A2955 RMK AO2 RAE56 SLP012 $
  • 162139Z AUTO 24018G23KT 9999 -RA FEW018 05/02 A2957 RMK AO2 RAE2057RAB39 SLP019 $

Expired Forecast.



MET'MAP, your aeronautical weather chart ! - Copyright ORBIFLY December 2007 - Disclaimer

ORBIFLY MET'MAP TEAM :

Programming & Development : Alexandra Zaïnal
Concept & original design : Baudouin d'Aumeries
Assistance for programming : Marc-Olivier Méhu
Technical & hardware support : Manuel Goepfert

Contact : metmap@orbifly.com




SOURCES & CREDITS :

   NOAA